Nearby METAR Reports

 

KIAG - Niagara Falls, New York, USA
Distance from station: W 12mi, 20km
Updated: 11/14/2018 5:53pm
Mostly cloudy
Mostly cloudy
 Wind from E
Wind: E 3 mph , 6 km/h
Temperature: 30°F , -1°C
Dew Point: 19°F , -7°C
Humidity: 64%
Barometer: 1033.2 hPa
Clouds: Mostly cloudy
Visibility: 10 miles , 16 km
Cloud details: Mostly cloudy 4700 ft
2018/11/14 22:53 KIAG 142253Z 08003KT 10SM BKN047 M01/M07 A3051 RMK AO2 SLP349 T10111072
KBUF - Buffalo/Cheektow, New York, USA
Distance from station: S 13mi, 21km
Updated: 11/14/2018 5:54pm
Mostly cloudy
Mostly cloudy
 Wind from NNE
Wind: NNE 6 mph , 9 km/h
Temperature: 30°F , -1°C
Wind Chill: 24°F , -4°C
Dew Point: 16°F , -9°C
Humidity: 55%
Barometer: 1033.5 hPa
Clouds: Mostly cloudy
Visibility: 10 miles , 16 km
Cloud details: Mostly cloudy 4500 ft
2018/11/14 22:54 KBUF 142254Z 02005KT 10SM BKN045 M01/M09 A3052 RMK AO2 SLP345 T10111089
 
KROC - Rochester, New York, USA
Distance from station: E 51mi, 82km
Updated: 11/14/2018 5:54pm
Mostly cloudy
Mostly cloudy
 Wind from N
Wind: N 6 mph , 9 km/h
Temperature: 28°F , -2°C
Wind Chill: 21°F , -6°C
Dew Point: 21°F , -6°C
Humidity: 74%
Barometer: 1033.9 hPa
Clouds: Mostly cloudy
Visibility: 10 miles , 16 km
Cloud details: Partly cloudy 5000 ft
Mostly cloudy 20000 ft
2018/11/14 22:54 KROC 142254Z 01005KT 10SM SCT050 BKN200 M02/M06 A3053 RMK AO2 SLP351 T10221061
CYSN - St. Catharines A, Ontario, Canada
Distance from station: WNW 25mi, 40km
Updated: 11/14/2018 6:00pm
Mostly cloudy
Mostly cloudy
 Wind from NNW
Wind: NNW 5 mph , 7 km/h
Temperature: 32°F , 0°C
Wind Chill: 27°F , -3°C
Dew Point: 18°F , -8°C
Humidity: 55%
Barometer: 1033.9 hPa
Clouds: Mostly cloudy
Visibility: 15 miles , 24 km
Cloud details: Mostly cloudy 4200 ft
2018/11/14 23:00 CYSN 142300Z 34004KT 15SM BKN042 00/M08 A3053 RMK SC7 SLP344
 
KOLE - Olean, New York, USA
Distance from station: SSE 63mi, 102km
Updated: 11/14/2018 6:35pm
Clear
Clear
 Wind from calm
Wind: Calm
Temperature: 21°F , -6°C
Dew Point: 14°F , -10°C
Humidity: 74%
Barometer: 1031.5 hPa
Clouds: Clear
Visibility: 10 miles , 16 km
2018/11/14 23:35 KOLE 142335Z AUTO 00000KT 10SM CLR M06/M10 A3046 RMK AO2
KJHW - Jamestown, New York, USA
Distance from station: SSW 74mi, 119km
Updated: 11/14/2018 5:56pm
Overcast
Overcast
 Wind from calm
Wind: Calm
Temperature: 25°F , -4°C
Dew Point: 16°F , -9°C
Humidity: 69%
Barometer: 1032.2 hPa
Clouds: Overcast
Visibility: 10 miles , 16 km
Cloud details: Overcast 3100 ft
2018/11/14 22:56 KJHW 142256Z AUTO 00000KT 10SM OVC031 M04/M09 A3048 RMK AO2 SLP354 T10441089 FZRANO
 
CWWZ - Port Weller (mar, Ontario, Canada
Distance from station: WNW 28mi, 45km
Updated: 11/14/2018 6:00pm

 Wind from N
Wind: N 13 mph , 20 km/h
Temperature: 34°F , 1°C
Wind Chill: 25°F , -4°C
Dew Point: 23°F , -5°C
Humidity: 65%
2018/11/14 23:00 CWWZ 142300Z AUTO 35011KT 01/M05 RMK AO1 SOG 04 3005 SLP345 T00101048
CWPC - Port Colborne(Au, Ontario, Canada
Distance from station: WSW 33mi, 53km
Updated: 11/14/2018 6:00pm

 Wind from NW
Wind: NW 7 mph , 11 km/h
Temperature: 30°F , -1°C
Wind Chill: 23°F , -5°C
Dew Point: 16°F , -9°C
Humidity: 55%
2018/11/14 23:00 CWPC 142300Z AUTO 32006KT M01/M09 RMK AO1 SLP350 T10051092 53009
 
CXVN - Vineland (au8), Ontario, Canada
Distance from station: W 36mi, 58km
Updated: 11/14/2018 6:00pm

 Wind from NNW
Wind: NNW 7 mph , 11 km/h
Temperature: 34°F , 1°C
Wind Chill: 28°F , -2°C
Dew Point: 18°F , -8°C
Humidity: 51%
2018/11/14 23:00 CXVN 142300Z AUTO 34006KT 01/M08 RMK AO1 SLP338 T00051084 53005
CYTZ - Toronto Il Vor, Ontario, Canada
Distance from station: NW 50mi, 81km
Updated: 11/14/2018 6:00pm
Few Clouds
Few Clouds
 Wind from N
Wind: N 9 mph , 15 km/h
Temperature: 28°F , -2°C
Wind Chill: 19°F , -7°C
Dew Point: 18°F , -8°C
Humidity: 64%
Barometer: 1034.5 hPa
Clouds: Few Clouds
Visibility: 9 miles , 14 km
Cloud details: Few Clouds 5000 ft
2018/11/14 23:00 CYTZ 142300Z AUTO 36008KT 9SM FEW050 M02/M08 A3055 RMK SLP351
 
CXTO - Toronto City, Ontario, Canada
Distance from station: NW 52mi, 84km
Updated: 11/14/2018 6:00pm

 
Temperature: 27°F , -3°C
Dew Point: 16°F , -9°C
Humidity: 64%
2018/11/14 23:00 CXTO 142300Z AUTO M03/M09 RMK AO1 SLP347 T10301089 51012
KDKK - Dunkirk, New York, USA
Distance from station: SW 52mi, 84km
Updated: 11/14/2018 5:53pm
Overcast
Overcast
 Wind from S
Wind: S 5 mph , 7 km/h
Temperature: 30°F , -1°C
Wind Chill: 25°F , -4°C
Dew Point: 19°F , -7°C
Humidity: 64%
Barometer: 1033.9 hPa
Clouds: Overcast
Visibility: 10 miles , 16 km
Cloud details: Overcast 4200 ft
2018/11/14 22:53 KDKK 142253Z AUTO 19004KT 10SM OVC042 M01/M07 A3053 RMK AO2 SLP346 T10111067
 
CYOO - Oshawa, Ontario, Canada
Distance from station: N 56mi, 90km
Updated: 11/14/2018 6:00pm
Clear
Clear
 Wind from NE
Wind: NE 3 mph , 6 km/h
Temperature: 23°F , -5°C
Dew Point: 16°F , -9°C
Humidity: 74%
Barometer: 1034.5 hPa
Clouds: Clear
Visibility: 9 miles , 14 km
2018/11/14 23:00 CYOO 142300Z AUTO 04003KT 9SM CLR M05/M09 A3055 RMK PRESRR SLP356
CWWB - Burlington Piers, Ontario, Canada
Distance from station: WNW 56mi, 91km
Updated: 11/14/2018 6:00pm

 Wind from NNW
Wind: NNW 10 mph , 17 km/h
Temperature: 32°F , 0°C
Wind Chill: 24°F , -4°C
Dew Point: 19°F , -7°C
Humidity: 60%
2018/11/14 23:00 CWWB 142300Z AUTO 34009KT M00/M07 RMK AO1 SLP341 T10021073 52005
 
CYYZ - Toronto/Pearson, Ontario, Canada
Distance from station: NW 60mi, 96km
Updated: 11/14/2018 6:00pm
Mostly cloudy
Mostly cloudy
 Wind from N
Wind: N 9 mph , 15 km/h
Temperature: 25°F , -4°C
Wind Chill: 16°F , -9°C
Dew Point: 16°F , -9°C
Humidity: 69%
Barometer: 1033.9 hPa
Clouds: Mostly cloudy
Visibility: 15 miles , 24 km
Cloud details: Mostly cloudy 4300 ft
2018/11/14 23:00 CYYZ 142300Z 01008KT 15SM BKN043 M04/M09 A3053 RMK SC6 SLP350
CYKZ - Toronto Buttonvi, Ontario, Canada
Distance from station: NW 62mi, 99km
Updated: 11/14/2018 6:00pm
Few Clouds
Few Clouds
 Wind from calm
Wind: Calm
Temperature: 21°F , -6°C
Dew Point: 16°F , -9°C
Humidity: 80%
Barometer: 1034.2 hPa
Clouds: Few Clouds
Visibility: 15 miles , 24 km
Cloud details: Few Clouds 4000 ft
Few Clouds 25000 ft
2018/11/14 23:00 CYKZ 142300Z 00000KT 15SM FEW040 FEW250 M06/M09 A3054 RMK SC1CI2 SC TR DIST SN SH SW CU EMBD SLP355
 
CXHM - Hamilton Rbg Cs, Ontario, Canada
Distance from station: W 62mi, 100km
Updated: 11/13/2018 10:00pm
NOT Current

 Wind from W
Wind: W 8 mph , 13 km/h
Temperature: 28°F , -2°C
Wind Chill: 20°F , -7°C
Dew Point: 19°F , -7°C
Humidity: 69%
2018/11/14 03:00 CXHM 140300Z AUTO 28007KT M02/M07 RMK AO1 SLP246 T10191074 53016
KDSV - Dansville, New York, USA
Distance from station: SE 62mi, 100km
Updated: 11/14/2018 5:54pm
Few Clouds
Few Clouds
 Wind from calm
Wind: Calm
Temperature: 28°F , -2°C
Dew Point: 18°F , -8°C
Humidity: 64%
Barometer: 1033.9 hPa
Clouds: Few Clouds
Visibility: 10 miles , 16 km
Cloud details: Few Clouds 5000 ft
2018/11/14 22:54 KDSV 142254Z AUTO 00000KT 10SM FEW050 M02/M08 A3053 RMK AO2 SLP355 T10171083
 
CYHM - Hamilton Airport, Ontario, Canada
Distance from station: W 63mi, 101km
Updated: 11/14/2018 6:00pm
Mostly cloudy
Mostly cloudy
 Wind from W
Wind: W 2 mph , 4 km/h
Temperature: 27°F , -3°C
Dew Point: 18°F , -8°C
Humidity: 69%
Barometer: 1033.2 hPa
Clouds: Mostly cloudy
Visibility: 15 miles , 24 km
Cloud details: Mostly cloudy 4100 ft
2018/11/14 23:00 CYHM 142300Z 26002KT 15SM BKN041 M03/M08 A3051 RMK SC6 SLP345
CWNC - Cobourg (mars), Ontario, Canada
Distance from station: NNE 63mi, 102km
Updated: 11/14/2018 6:00pm

 Wind from N
Wind: N 5 mph , 7 km/h
Temperature: 23°F , -5°C
Wind Chill: 17°F , -8°C
Dew Point: 12°F , -11°C
Humidity: 63%
2018/11/14 23:00 CWNC 142300Z AUTO 01004KT M05/M11 RMK AO1 SLP350 T10521110 51011